createdAt,value
2023-07-30T00:02:40.013Z,97041.91
2023-07-30T00:06:41.464Z,97053.16
2023-07-30T00:10:43.062Z,97059.22
2023-07-30T00:14:44.480Z,97048.88
2023-07-30T00:18:47.200Z,97053.97
2023-07-30T00:22:48.571Z,97041.44
2023-07-30T00:26:49.962Z,97046.66
2023-07-30T00:30:51.355Z,97042.47
2023-07-30T00:34:54.151Z,97030.63
2023-07-30T00:38:55.563Z,97036.91
2023-07-30T00:42:57.008Z,97040.06
2023-07-30T00:46:58.548Z,97041.09
2023-07-30T00:51:01.336Z,97039.25
2023-07-30T00:55:03.570Z,97048.75
2023-07-30T00:59:05.028Z,97056.28
2023-07-30T01:03:06.449Z,97055.59
2023-07-30T01:07:09.264Z,97056.53
2023-07-30T01:11:11.162Z,97064.66
2023-07-30T01:15:13.321Z,97056.06
2023-07-30T01:19:14.704Z,97057.91
2023-07-30T01:23:17.446Z,97055.13
2023-07-30T01:27:23.695Z,97047.72
2023-07-30T01:31:27.063Z,97057.34
2023-07-30T01:35:29.432Z,97058.38
2023-07-30T01:39:33.022Z,97047.72
2023-07-30T01:43:34.411Z,97049.78
2023-07-30T01:47:35.844Z,97047.72
2023-07-30T01:51:37.589Z,97049.78
2023-07-30T01:55:40.487Z,97048.06
2023-07-30T01:59:41.867Z,97049.78
2023-07-30T02:03:43.329Z,97042.56
2023-07-30T02:07:44.749Z,97042.34
2023-07-30T02:11:47.475Z,97047.22
2023-07-30T02:15:48.964Z,97056.16
2023-07-30T02:19:50.424Z,97053.44
2023-07-30T02:23:51.821Z,97060.38
2023-07-30T02:27:54.679Z,97053.59
2023-07-30T02:31:56.107Z,97055.53
2023-07-30T02:35:57.571Z,97061.06
2023-07-30T02:39:58.949Z,97061.88
2023-07-30T02:44:01.688Z,97064.09
2023-07-30T02:48:03.206Z,97067.72
2023-07-30T02:52:05.009Z,97065.22
2023-07-30T02:56:06.412Z,97057.81
2023-07-30T03:00:09.767Z,97008.88
2023-07-30T03:04:11.173Z,96960.13
2023-07-30T03:08:12.568Z,96986.19
2023-07-30T03:12:14.030Z,97027.66
2023-07-30T03:16:16.780Z,97021.69
2023-07-30T03:20:18.232Z,97020.84
2023-07-30T03:24:20.527Z,97039.84
2023-07-30T03:28:21.945Z,97026.03
2023-07-30T03:32:24.695Z,97027.19
2023-07-30T03:36:26.158Z,97021.25
2023-07-30T03:40:27.706Z,97037.44
2023-07-30T03:44:29.126Z,97042.47
2023-07-30T03:48:31.888Z,97051.81
2023-07-30T03:52:33.325Z,97052.78
2023-07-30T03:56:34.724Z,97061.66
2023-07-30T04:00:36.133Z,97059.28
2023-07-30T04:04:38.899Z,97060.91
2023-07-30T04:08:40.301Z,97062.56
2023-07-30T04:12:41.764Z,97061.78
2023-07-30T04:16:43.181Z,97067.34
2023-07-30T04:20:45.957Z,97075.56
2023-07-30T04:24:47.492Z,97074.00
2023-07-30T04:28:48.884Z,97079.63
2023-07-30T04:32:50.321Z,97085.00
2023-07-30T04:36:53.186Z,97098.75
2023-07-30T04:40:54.648Z,97087.72
2023-07-30T04:44:56.058Z,97091.47
2023-07-30T04:48:57.461Z,97106.69
2023-07-30T04:53:00.254Z,97103.56
2023-07-30T04:57:02.633Z,97102.50
2023-07-30T05:01:04.052Z,97109.38
2023-07-30T05:05:05.877Z,97114.84
2023-07-30T05:09:08.634Z,97120.19
2023-07-30T05:13:10.045Z,97115.94
2023-07-30T05:17:11.495Z,97121.03
2023-07-30T05:21:12.926Z,97127.34
2023-07-30T05:25:15.842Z,97126.91
2023-07-30T05:29:17.264Z,97138.09
2023-07-30T05:33:18.675Z,97144.22
2023-07-30T05:37:20.121Z,97143.97
2023-07-30T05:41:22.887Z,97153.34
2023-07-30T05:45:24.349Z,97153.81
2023-07-30T05:49:25.768Z,97157.81
2023-07-30T05:53:27.166Z,97165.88
2023-07-30T05:57:29.929Z,97167.63
2023-07-30T06:01:31.367Z,97159.63
2023-07-30T06:05:32.861Z,97165.75
2023-07-30T06:09:34.274Z,97158.31
2023-07-30T06:13:37.013Z,97160.97
2023-07-30T06:17:38.471Z,97168.22
2023-07-30T06:21:40.260Z,97171.44
2023-07-30T06:25:41.747Z,97181.81
2023-07-30T06:29:44.509Z,97182.44
2023-07-30T06:33:45.964Z,97178.63
2023-07-30T06:37:47.400Z,97180.28
2023-07-30T06:41:48.804Z,97169.59
2023-07-30T06:45:51.556Z,97169.91
2023-07-30T06:49:52.984Z,97176.81
2023-07-30T06:53:54.379Z,97178.59
2023-07-30T06:57:55.767Z,97185.53
2023-07-30T07:01:58.522Z,97177.63
2023-07-30T07:05:59.924Z,97169.69
2023-07-30T07:10:01.371Z,97179.84
2023-07-30T07:14:02.946Z,97190.06
2023-07-30T07:18:05.732Z,97202.88
2023-07-30T07:22:07.179Z,97197.00
2023-07-30T07:26:08.590Z,97185.25
2023-07-30T07:30:10.605Z,97196.38
2023-07-30T07:34:13.382Z,97181.41
2023-07-30T07:38:14.789Z,97180.47
2023-07-30T07:42:16.210Z,97185.78
2023-07-30T07:46:17.665Z,97199.25
2023-07-30T07:50:20.463Z,97184.44
2023-07-30T07:54:21.875Z,97183.63
2023-07-30T07:58:23.312Z,97190.63
2023-07-30T08:02:24.822Z,97184.31
2023-07-30T08:06:27.671Z,97173.34
2023-07-30T08:10:29.127Z,97182.88
2023-07-30T08:14:30.858Z,97192.78
2023-07-30T08:18:32.283Z,97198.34
2023-07-30T08:22:35.126Z,97204.59
2023-07-30T08:26:36.547Z,97207.88
2023-07-30T08:30:38.009Z,97214.75
2023-07-30T08:34:39.389Z,97217.53
2023-07-30T08:38:42.154Z,97211.78
2023-07-30T08:42:43.605Z,97199.31
2023-07-30T08:46:45.047Z,97193.22
2023-07-30T08:50:46.658Z,97189.00
2023-07-30T08:54:52.810Z,97194.72
2023-07-30T08:58:56.845Z,97187.31
2023-07-30T09:03:00.091Z,97177.19
2023-07-30T09:07:01.615Z,97172.78
2023-07-30T09:11:10.467Z,97157.81
2023-07-30T09:15:11.869Z,97159.66
2023-07-30T09:19:17.055Z,97147.31
2023-07-30T09:23:18.606Z,97155.59
2023-07-30T09:27:22.652Z,97152.97
2023-07-30T09:31:24.123Z,97157.91
2023-07-30T09:35:26.248Z,97161.38
2023-07-30T09:39:27.801Z,97156.06
2023-07-30T09:43:33.003Z,97164.16
2023-07-30T09:47:34.463Z,97171.97
2023-07-30T09:51:37.542Z,97172.31
2023-07-30T09:55:39.079Z,97162.75
2023-07-30T09:59:41.838Z,97165.72
2023-07-30T10:03:43.379Z,97173.09
2023-07-30T10:07:48.459Z,97177.47
2023-07-30T10:11:53.508Z,97182.38
2023-07-30T10:15:57.450Z,97187.34
2023-07-30T10:20:18.564Z,97216.25
2023-07-30T10:24:19.958Z,97206.03
2023-07-30T10:28:27.785Z,97199.69
2023-07-30T10:32:38.484Z,97186.16
2023-07-30T10:36:44.255Z,97188.22
2023-07-30T10:41:03.417Z,97183.22
2023-07-30T10:45:07.877Z,97178.94
2023-07-30T10:49:10.796Z,97185.47
2023-07-30T10:53:12.177Z,97173.81
2023-07-30T10:57:13.568Z,97165.25
2023-07-30T11:01:14.992Z,97160.72
2023-07-30T11:05:17.839Z,97159.59
2023-07-30T11:09:20.046Z,97162.69
2023-07-30T11:13:21.444Z,97171.06
2023-07-30T11:17:22.993Z,97173.69
2023-07-30T11:21:25.707Z,97190.03
2023-07-30T11:25:27.172Z,97188.03
2023-07-30T11:29:28.604Z,97191.38
2023-07-30T11:33:30.133Z,97183.94
2023-07-30T11:37:33.373Z,97184.53
2023-07-30T11:41:34.911Z,97187.25
2023-07-30T11:45:36.409Z,97173.13
2023-07-30T11:49:38.146Z,97172.22
2023-07-30T11:53:47.447Z,97163.22
2023-07-30T11:57:48.830Z,97205.53
2023-07-30T12:01:50.562Z,97224.41
2023-07-30T12:05:51.983Z,97244.28
2023-07-30T12:14:45.871Z,97250.13
2023-07-30T12:18:47.280Z,97247.66
2023-07-30T12:22:48.652Z,97254.84
2023-07-30T12:26:51.254Z,97232.38
2023-07-30T12:30:55.155Z,97220.59
2023-07-30T12:34:56.554Z,97227.84
2023-07-30T12:38:57.959Z,97225.59
2023-07-30T12:42:59.345Z,97228.00
2023-07-30T12:47:02.130Z,97228.84
2023-07-30T12:51:03.625Z,97237.84
2023-07-30T12:55:05.536Z,97237.38
2023-07-30T12:59:06.935Z,97233.25
2023-07-30T13:03:09.820Z,97235.28
2023-07-30T13:07:11.244Z,97240.38
2023-07-30T13:11:12.633Z,97249.13
2023-07-30T13:15:14.025Z,97253.66
2023-07-30T13:19:16.815Z,97250.91
2023-07-30T13:23:18.191Z,97246.81
2023-07-30T13:27:19.598Z,97248.69
2023-07-30T13:31:21.063Z,97248.75
2023-07-30T13:35:23.851Z,97253.94
2023-07-30T13:39:25.297Z,97247.63
2023-07-30T13:43:26.698Z,97228.53
2023-07-30T13:47:28.143Z,97227.91
2023-07-30T13:51:31.104Z,97225.25
2023-07-30T13:55:32.582Z,97229.03
2023-07-30T13:59:33.974Z,97213.16
2023-07-30T14:03:35.363Z,97206.75
2023-07-30T14:07:38.131Z,97204.94
2023-07-30T14:11:39.812Z,97207.41
2023-07-30T14:15:41.492Z,97218.59
2023-07-30T14:19:42.886Z,97222.03
2023-07-30T14:23:45.626Z,97214.59
2023-07-30T14:27:47.041Z,97220.16
2023-07-30T14:31:48.471Z,97220.00
2023-07-30T14:35:49.943Z,97209.50
2023-07-30T14:39:52.693Z,97222.69
2023-07-30T14:43:54.085Z,97212.38
2023-07-30T14:47:55.550Z,97216.13
2023-07-30T14:51:57.028Z,97211.69
2023-07-30T14:56:01.368Z,97221.84
2023-07-30T15:00:04.136Z,97208.00
2023-07-30T15:04:05.539Z,97214.09
2023-07-30T15:08:06.946Z,97204.34
2023-07-30T15:12:09.722Z,97207.81
2023-07-30T15:16:11.161Z,97208.41
2023-07-30T15:20:12.626Z,97203.53
2023-07-30T15:24:14.023Z,97205.19
2023-07-30T15:28:16.827Z,97198.53
2023-07-30T15:32:18.301Z,97194.28
2023-07-30T15:36:19.842Z,97197.72
2023-07-30T15:40:21.281Z,97204.91
2023-07-30T15:44:24.182Z,97208.50
2023-07-30T15:48:25.589Z,97202.03
2023-07-30T15:52:26.977Z,97215.31
2023-07-30T15:56:28.373Z,97214.53
2023-07-30T16:00:31.145Z,97220.91
2023-07-30T16:04:34.072Z,97216.84
2023-07-30T16:08:36.018Z,97235.75
2023-07-30T16:12:37.494Z,97223.16
2023-07-30T16:16:40.507Z,97217.13
2023-07-30T16:20:42.140Z,97233.59
2023-07-30T16:24:43.534Z,97234.91
2023-07-30T16:28:44.973Z,97234.00
2023-07-30T16:32:47.789Z,97237.16
2023-07-30T16:36:49.225Z,97244.50
2023-07-30T16:40:52.472Z,97246.84
2023-07-30T16:44:55.459Z,97252.34
2023-07-30T16:48:58.499Z,97260.06
2023-07-30T16:52:59.998Z,97258.38
2023-07-30T16:57:01.398Z,97264.31
2023-07-30T17:01:02.856Z,97253.25
2023-07-30T17:05:06.389Z,97251.16
2023-07-30T17:09:07.827Z,97249.84
2023-07-30T17:13:11.519Z,97248.72
2023-07-30T17:17:14.643Z,97250.22
2023-07-30T17:21:17.368Z,97270.88
2023-07-30T17:25:18.819Z,97282.09
2023-07-30T17:29:20.229Z,97284.66
2023-07-30T17:33:21.785Z,97279.38
2023-07-30T17:37:24.568Z,97277.38
2023-07-30T17:41:25.962Z,97290.44
2023-07-30T17:45:27.356Z,97297.09
2023-07-30T17:49:28.809Z,97301.13
2023-07-30T17:53:31.565Z,97311.78
2023-07-30T17:57:33.009Z,97331.00
2023-07-30T18:01:34.749Z,97332.41
2023-07-30T18:05:46.870Z,97322.75
2023-07-30T18:09:51.151Z,97340.38
2023-07-30T18:13:52.551Z,97348.50
2023-07-30T18:17:53.988Z,97352.53
2023-07-30T18:21:55.444Z,97361.78
2023-07-30T18:25:58.226Z,97365.34
2023-07-30T18:29:59.680Z,97366.66
2023-07-30T18:34:01.100Z,97374.75
2023-07-30T18:38:02.648Z,97393.03
2023-07-30T18:42:05.752Z,97388.81
2023-07-30T18:46:07.212Z,97400.97
2023-07-30T18:50:09.180Z,97403.09
2023-07-30T18:54:10.574Z,97410.31
2023-07-30T18:58:13.372Z,97413.09
2023-07-30T19:02:14.816Z,97424.91
2023-07-30T19:06:16.255Z,97428.38
2023-07-30T19:10:17.789Z,97432.47
2023-07-30T19:14:21.319Z,97445.38
2023-07-30T19:18:22.737Z,97448.00
2023-07-30T19:22:24.104Z,97454.88
2023-07-30T19:26:25.511Z,97457.38
2023-07-30T19:30:28.257Z,97462.13
2023-07-30T19:34:29.646Z,97467.94
2023-07-30T19:38:31.061Z,97465.53
2023-07-30T19:42:32.439Z,97476.41
2023-07-30T19:46:35.255Z,97467.13
2023-07-30T19:50:39.459Z,97479.59
2023-07-30T19:54:45.396Z,97471.44
2023-07-30T19:58:46.792Z,97480.97
2023-07-30T20:02:49.554Z,97491.94
2023-07-30T20:06:51.061Z,97487.22
2023-07-30T20:10:53.426Z,97486.56
2023-07-30T20:14:55.060Z,97483.78
2023-07-30T20:18:57.788Z,97482.34
2023-07-30T20:22:59.183Z,97491.94
2023-07-30T20:27:00.576Z,97490.31
2023-07-30T20:31:01.965Z,97491.13
2023-07-30T20:35:05.099Z,97494.72
2023-07-30T20:39:06.502Z,97490.78
2023-07-30T20:43:07.928Z,97493.56
2023-07-30T20:47:09.318Z,97495.34
2023-07-30T20:51:12.242Z,97501.16
2023-07-30T20:55:14.683Z,97495.44
2023-07-30T20:59:16.468Z,97507.69
2023-07-30T21:03:18.020Z,97503.44
2023-07-30T21:07:20.901Z,97514.16
2023-07-30T21:11:22.372Z,97510.84
2023-07-30T21:15:23.748Z,97509.91
2023-07-30T21:19:25.136Z,97508.72
2023-07-30T21:23:27.880Z,97505.09
2023-07-30T21:27:29.271Z,97505.78
2023-07-30T21:31:30.707Z,97504.47
2023-07-30T21:35:32.134Z,97507.53
2023-07-30T21:39:34.919Z,97506.34
2023-07-30T21:43:36.339Z,97512.41
2023-07-30T21:47:37.782Z,97514.63
2023-07-30T21:51:39.196Z,97517.97
2023-07-30T21:55:41.929Z,97525.28
2023-07-30T21:59:43.317Z,97521.81
2023-07-30T22:03:44.716Z,97519.81
2023-07-30T22:07:46.100Z,97527.44
2023-07-30T22:11:48.830Z,97530.53
2023-07-30T22:15:50.210Z,97523.78
2023-07-30T22:19:51.605Z,97530.94
2023-07-30T22:23:52.991Z,97538.16
2023-07-30T22:28:08.748Z,97543.94
2023-07-30T22:32:11.689Z,97539.81
2023-07-30T22:36:13.080Z,97535.25
2023-07-30T22:40:14.482Z,97536.56
2023-07-30T22:44:17.218Z,97540.16
2023-07-30T22:48:18.633Z,97535.53
2023-07-30T22:52:20.035Z,97530.53
2023-07-30T22:56:21.438Z,97539.97
2023-07-30T23:00:24.360Z,97532.84
2023-07-30T23:04:25.748Z,97540.97
2023-07-30T23:08:27.150Z,97526.63
2023-07-30T23:12:28.562Z,97538.75
2023-07-30T23:16:31.377Z,97548.00
2023-07-30T23:20:32.846Z,97539.94
2023-07-30T23:24:34.322Z,97549.25
2023-07-30T23:28:35.878Z,97536.97
2023-07-30T23:32:38.690Z,97538.94
2023-07-30T23:36:40.518Z,97536.91
2023-07-30T23:40:42.569Z,97535.47
2023-07-30T23:44:44.000Z,97535.06
2023-07-30T23:48:46.747Z,97542.03
2023-07-30T23:52:48.158Z,97536.59
2023-07-30T23:56:49.568Z,97537.72
